Eckley, Colorado
Current Conditions -  °F | °C
As of 7:06 PM on Wednesday 17 Dec 2014 (Local Time) from KAKO Reporting Station
Haze Haze  
Wind Chill: 12°   Ceiling: 200
Heat Index: 22°   Visibility: 0.75mi
Dew Point: 21°   Wind: 9mph
Humidity: 96%   Direction: 160°SSE
Pressure: 29.97"   Gusts: NA
Location:  40.11°N, 102.49°W
Report Text: KAKO 180206Z AUTO 16008KT 3/4SM BR VV002 M06/M06 A2997 RMK AO2 T10561061
Loading
Personal Weather Stations






























Interactive Weather Map New forecast layout! Learn more

10-Day Weather Forecast

Advertisements
Track Severe Weather on mobile